Time,TemperatureF,DewpointF,PressureIn,WindDirection,WindDirectionDegrees,WindSpeedMPH,WindSpeedGustMPH,Humidity,HourlyPrecipIn,Conditions,Clouds,dailyrainin,SoftwareType,DateUTC
2013-10-04 00:04:00,45.9,42.4,29.86,East,90,2.0,2.0,88,0.00,,,0.00,meteohub,2013-10-04 07:04:00,
2013-10-04 00:09:00,46.0,42.6,29.86,NE,45,1.0,2.0,88,0.00,,,0.00,meteohub,2013-10-04 07:09:00,
2013-10-04 00:14:00,46.0,42.6,29.86,East,90,2.0,2.0,88,0.00,,,0.00,meteohub,2013-10-04 07:14:00,
2013-10-04 00:19:00,46.0,42.6,29.86,East,90,1.0,2.0,88,0.00,,,0.00,meteohub,2013-10-04 07:19:00,
2013-10-04 00:24:00,45.9,42.4,29.86,East,90,1.0,2.0,88,0.00,,,0.00,meteohub,2013-10-04 07:24:00,
2013-10-04 00:29:00,45.7,42.6,29.86,SW,225,1.0,2.0,89,0.00,,,0.00,meteohub,2013-10-04 07:29:00,
2013-10-04 00:35:00,45.7,42.6,29.86,NE,45,1.0,2.0,89,0.00,,,0.00,meteohub,2013-10-04 07:35:00,
2013-10-04 00:40:00,45.9,43.2,29.86,NW,315,2.0,2.0,90,0.00,,,0.00,meteohub,2013-10-04 07:40:00,
2013-10-04 00:45:00,46.2,43.5,29.86,East,90,2.0,4.0,90,0.00,,,0.00,meteohub,2013-10-04 07:45:00,
2013-10-04 00:50:00,46.2,43.5,29.86,NE,45,1.0,4.0,90,0.00,,,0.00,meteohub,2013-10-04 07:50:00,
2013-10-04 00:55:00,45.9,42.8,29.86,NE,45,1.0,2.0,89,0.00,,,0.00,meteohub,2013-10-04 07:55:00,
2013-10-04 01:00:00,45.9,43.2,29.86,NE,45,2.0,3.0,90,0.00,,,0.00,meteohub,2013-10-04 08:00:00,
2013-10-04 01:05:00,46.0,43.5,29.86,NE,45,3.0,3.0,91,0.00,,,0.00,meteohub,2013-10-04 08:05:00,
2013-10-04 01:10:00,45.9,43.3,29.86,NE,45,2.0,3.0,91,0.00,,,0.00,meteohub,2013-10-04 08:10:00,
2013-10-04 01:15:00,45.7,43.2,29.87,North,0,2.0,3.0,91,0.00,,,0.00,meteohub,2013-10-04 08:15:00,
2013-10-04 01:20:00,45.7,43.2,29.87,East,90,1.0,3.0,91,0.00,,,0.00,meteohub,2013-10-04 08:20:00,
2013-10-04 01:25:00,45.7,43.5,29.87,North,0,2.0,2.0,92,0.00,,,0.00,meteohub,2013-10-04 08:25:00,
2013-10-04 01:30:00,45.9,43.7,29.87,East,90,1.0,2.0,92,0.00,,,0.00,meteohub,2013-10-04 08:30:00,
2013-10-04 01:35:00,45.7,43.5,29.86,NE,45,0.0,2.0,92,0.00,,,0.00,meteohub,2013-10-04 08:35:00,
2013-10-04 01:40:00,45.5,43.3,29.87,NE,45,1.0,2.0,92,0.00,,,0.00,meteohub,2013-10-04 08:40:00,
2013-10-04 01:45:00,45.3,43.2,29.86,NE,45,2.0,2.0,92,0.00,,,0.00,meteohub,2013-10-04 08:45:00,
2013-10-04 01:50:00,45.3,43.3,29.87,NE,45,2.0,3.0,93,0.00,,,0.00,meteohub,2013-10-04 08:50:00,
2013-10-04 01:55:00,45.7,43.7,29.87,NE,45,1.0,3.0,93,0.00,,,0.00,meteohub,2013-10-04 08:55:00,
2013-10-04 02:00:00,45.7,43.7,29.87,NE,45,0.0,3.0,93,0.00,,,0.00,meteohub,2013-10-04 09:00:00,
2013-10-04 02:05:00,45.3,43.2,29.87,NE,45,0.0,2.0,92,0.00,,,0.00,meteohub,2013-10-04 09:05:00,
2013-10-04 02:10:00,45.1,43.2,29.87,South,180,2.0,2.0,93,0.00,,,0.00,meteohub,2013-10-04 09:10:00,
2013-10-04 02:15:00,45.1,43.2,29.87,NE,45,2.0,3.0,93,0.00,,,0.00,meteohub,2013-10-04 09:15:00,
2013-10-04 02:20:00,45.1,43.5,29.87,NE,45,0.0,3.0,94,0.00,,,0.00,meteohub,2013-10-04 09:20:00,
2013-10-04 02:25:00,44.8,42.8,29.87,NE,45,1.0,3.0,93,0.00,,,0.00,meteohub,2013-10-04 09:25:00,
2013-10-04 02:30:00,44.4,42.4,29.87,NE,45,1.0,3.0,93,0.00,,,0.00,meteohub,2013-10-04 09:30:00,
2013-10-04 02:35:00,43.9,41.9,29.87,NE,45,0.0,2.0,93,0.00,,,0.00,meteohub,2013-10-04 09:35:00,
2013-10-04 02:40:00,43.5,41.9,29.87,NE,45,1.0,2.0,94,0.00,,,0.00,meteohub,2013-10-04 09:40:00,
2013-10-04 02:46:00,43.3,41.7,29.86,NE,45,0.0,2.0,94,0.00,,,0.00,meteohub,2013-10-04 09:46:00,
2013-10-04 02:51:00,43.0,41.7,29.86,NE,45,0.0,1.0,95,0.00,,,0.00,meteohub,2013-10-04 09:51:00,
2013-10-04 02:56:00,43.0,41.7,29.86,NE,45,0.0,1.0,95,0.00,,,0.00,meteohub,2013-10-04 09:56:00,
2013-10-04 03:01:00,42.6,41.4,29.87,NE,45,1.0,1.0,95,0.00,,,0.00,meteohub,2013-10-04 10:01:00,
2013-10-04 03:06:00,42.4,41.2,29.86,SE,135,0.0,1.0,95,0.00,,,0.00,meteohub,2013-10-04 10:06:00,
2013-10-04 03:11:00,42.1,40.8,29.86,SE,135,0.0,1.0,95,0.00,,,0.00,meteohub,2013-10-04 10:11:00,
2013-10-04 03:16:00,41.9,40.8,29.86,SE,135,1.0,1.0,96,0.00,,,0.00,meteohub,2013-10-04 10:16:00,
2013-10-04 03:21:00,41.7,40.6,29.86,SE,135,0.0,1.0,96,0.00,,,0.00,meteohub,2013-10-04 10:21:00,
2013-10-04 03:26:00,41.7,41.0,29.86,SE,135,0.0,1.0,97,0.00,,,0.00,meteohub,2013-10-04 10:26:00,
2013-10-04 03:31:00,41.7,41.0,29.86,SE,135,0.0,1.0,97,0.00,,,0.00,meteohub,2013-10-04 10:31:00,
2013-10-04 03:36:00,41.4,40.6,29.85,SE,135,0.0,1.0,97,0.00,,,0.00,meteohub,2013-10-04 10:36:00,
2013-10-04 03:41:00,41.4,40.6,29.86,SE,135,0.0,1.0,97,0.00,,,0.00,meteohub,2013-10-04 10:41:00,
2013-10-04 03:46:00,41.5,40.8,29.86,SE,135,0.0,1.0,97,0.00,,,0.00,meteohub,2013-10-04 10:46:00,
2013-10-04 03:51:00,41.7,41.2,29.86,NE,45,0.0,1.0,98,0.00,,,0.00,meteohub,2013-10-04 10:51:00,
2013-10-04 03:56:00,42.1,41.9,29.86,NE,45,2.0,2.0,99,0.00,,,0.00,meteohub,2013-10-04 10:56:00,
2013-10-04 04:01:00,41.9,41.7,29.86,NE,45,0.0,2.0,99,0.00,,,0.00,meteohub,2013-10-04 11:01:00,
2013-10-04 04:06:00,41.9,41.7,29.86,NE,45,0.0,2.0,99,0.00,,,0.00,meteohub,2013-10-04 11:06:00,
2013-10-04 04:11:00,41.7,41.5,29.86,NE,45,0.0,2.0,99,0.00,,,0.00,meteohub,2013-10-04 11:11:00,
2013-10-04 04:16:00,41.5,41.4,29.86,NE,45,0.0,0.0,99,0.00,,,0.00,meteohub,2013-10-04 11:16:00,
2013-10-04 04:21:00,41.2,41.0,29.86,South,180,0.0,0.0,99,0.00,,,0.00,meteohub,2013-10-04 11:21:00,
2013-10-04 04:26:00,41.2,41.0,29.86,NE,45,0.0,0.0,99,0.00,,,0.00,meteohub,2013-10-04 11:26:00,
2013-10-04 04:31:00,41.4,41.2,29.86,NE,45,0.0,1.0,99,0.00,,,0.00,meteohub,2013-10-04 11:31:00,
2013-10-04 04:37:00,41.4,41.2,29.86,NE,45,0.0,1.0,99,0.00,,,0.00,meteohub,2013-10-04 11:37:00,
2013-10-04 04:42:00,41.2,41.0,29.86,NE,45,0.0,0.0,99,0.00,,,0.00,meteohub,2013-10-04 11:42:00,
2013-10-04 04:47:00,41.2,41.0,29.86,NE,45,0.0,0.0,99,0.00,,,0.00,meteohub,2013-10-04 11:47:00,
2013-10-04 04:52:00,41.2,41.0,29.86,North,0,1.0,1.0,99,0.00,,,0.00,meteohub,2013-10-04 11:52:00,
2013-10-04 04:57:00,41.2,41.0,29.85,East,90,0.0,1.0,99,0.00,,,0.00,meteohub,2013-10-04 11:57:00,
2013-10-04 05:02:00,41.0,40.8,29.85,East,90,0.0,2.0,99,0.00,,,0.00,meteohub,2013-10-04 12:02:00,
2013-10-04 05:07:00,40.6,40.5,29.86,East,90,0.0,2.0,99,0.00,,,0.00,meteohub,2013-10-04 12:07:00,
2013-10-04 05:12:00,40.5,40.3,29.86,East,90,0.0,2.0,99,0.00,,,0.00,meteohub,2013-10-04 12:12:00,
2013-10-04 05:17:00,40.3,40.1,29.86,East,90,0.0,0.0,99,0.00,,,0.00,meteohub,2013-10-04 12:17:00,
2013-10-04 05:22:00,40.1,39.9,29.86,East,90,0.0,0.0,99,0.00,,,0.00,meteohub,2013-10-04 12:22:00,
2013-10-04 05:27:00,40.3,40.1,29.86,East,90,0.0,0.0,99,0.00,,,0.00,meteohub,2013-10-04 12:27:00,
2013-10-04 05:32:00,40.3,40.1,29.86,East,90,0.0,0.0,99,0.00,,,0.00,meteohub,2013-10-04 12:32:00,
2013-10-04 05:37:00,40.3,40.1,29.86,East,90,0.0,0.0,99,0.00,,,0.00,meteohub,2013-10-04 12:37:00,
2013-10-04 05:42:00,40.3,40.1,29.87,East,90,0.0,0.0,99,0.00,,,0.00,meteohub,2013-10-04 12:42:00,
2013-10-04 05:47:00,40.5,40.3,29.86,East,90,0.0,0.0,99,0.00,,,0.00,meteohub,2013-10-04 12:47:00,
2013-10-04 05:52:00,40.5,40.3,29.87,East,90,0.0,0.0,99,0.00,,,0.00,meteohub,2013-10-04 12:52:00,
2013-10-04 05:57:00,40.1,39.9,29.87,East,90,0.0,0.0,99,0.00,,,0.00,meteohub,2013-10-04 12:57:00,
2013-10-04 06:02:00,39.9,39.7,29.87,East,90,0.0,0.0,99,0.00,,,0.00,meteohub,2013-10-04 13:02:00,
2013-10-04 06:07:00,39.7,39.6,29.87,East,90,0.0,0.0,99,0.00,,,0.00,meteohub,2013-10-04 13:07:00,
2013-10-04 06:12:00,40.1,39.9,29.87,East,90,0.0,0.0,99,0.00,,,0.00,meteohub,2013-10-04 13:12:00,
2013-10-04 06:17:00,40.1,39.9,29.87,East,90,0.0,0.0,99,0.00,,,0.00,meteohub,2013-10-04 13:17:00,
2013-10-04 06:22:00,39.9,39.7,29.87,East,90,0.0,0.0,99,0.00,,,0.00,meteohub,2013-10-04 13:22:00,
2013-10-04 06:27:00,39.7,39.6,29.88,East,90,0.0,0.0,99,0.00,,,0.00,meteohub,2013-10-04 13:27:00,
2013-10-04 06:32:00,39.4,39.2,29.88,East,90,0.0,0.0,99,0.00,,,0.00,meteohub,2013-10-04 13:32:00,
2013-10-04 06:37:00,39.4,39.2,29.88,East,90,0.0,0.0,99,0.00,,,0.00,meteohub,2013-10-04 13:37:00,
2013-10-04 06:42:00,39.4,39.2,29.87,North,0,0.0,0.0,99,0.00,,,0.00,meteohub,2013-10-04 13:42:00,
2013-10-04 06:47:00,39.2,39.0,29.87,North,0,0.0,0.0,99,0.00,,,0.00,meteohub,2013-10-04 13:47:00,
2013-10-04 06:52:00,39.0,38.8,29.87,North,0,0.0,0.0,99,0.00,,,0.00,meteohub,2013-10-04 13:52:00,
2013-10-04 06:57:00,39.0,38.8,29.88,North,0,0.0,0.0,99,0.00,,,0.00,meteohub,2013-10-04 13:57:00,
2013-10-04 07:02:00,38.8,38.7,29.88,NE,45,0.0,0.0,99,0.00,,,0.00,meteohub,2013-10-04 14:02:00,
2013-10-04 07:07:00,39.0,38.8,29.87,NE,45,2.0,2.0,99,0.00,,,0.00,meteohub,2013-10-04 14:07:00,
2013-10-04 07:12:00,39.0,38.8,29.88,NE,45,0.0,2.0,99,0.00,,,0.00,meteohub,2013-10-04 14:12:00,
2013-10-04 07:17:00,39.0,38.8,29.88,NE,45,0.0,2.0,99,0.00,,,0.00,meteohub,2013-10-04 14:17:00,
2013-10-04 07:22:00,39.2,39.0,29.88,East,90,2.0,2.0,99,0.00,,,0.00,meteohub,2013-10-04 14:22:00,
2013-10-04 07:27:00,39.2,39.0,29.88,NE,45,1.0,2.0,99,0.00,,,0.00,meteohub,2013-10-04 14:27:00,
2013-10-04 07:32:00,39.2,39.0,29.87,NE,45,2.0,2.0,99,0.00,,,0.00,meteohub,2013-10-04 14:32:00,
2013-10-04 07:37:00,39.0,38.8,29.88,NE,45,0.0,3.0,99,0.00,,,0.00,meteohub,2013-10-04 14:37:00,
2013-10-04 07:42:00,39.2,39.0,29.88,South,180,2.0,3.0,99,0.00,,,0.00,meteohub,2013-10-04 14:42:00,
2013-10-04 07:47:00,39.0,38.8,29.88,SW,225,2.0,3.0,99,0.00,,,0.00,meteohub,2013-10-04 14:47:00,
2013-10-04 07:52:00,39.2,39.0,29.88,SW,225,0.0,3.0,99,0.00,,,0.00,meteohub,2013-10-04 14:52:00,
2013-10-04 07:57:00,39.4,39.2,29.88,SW,225,0.0,3.0,99,0.00,,,0.00,meteohub,2013-10-04 14:57:00,
2013-10-04 08:02:00,39.7,39.6,29.88,SW,225,2.0,2.0,99,0.00,,,0.00,meteohub,2013-10-04 15:02:00,
2013-10-04 08:07:00,39.9,39.7,29.88,South,180,0.0,2.0,99,0.00,,,0.00,meteohub,2013-10-04 15:07:00,
2013-10-04 08:12:00,40.3,40.1,29.88,South,180,0.0,2.0,99,0.00,,,0.00,meteohub,2013-10-04 15:12:00,
2013-10-04 08:17:00,40.5,40.3,29.88,SW,225,3.0,3.0,99,0.00,,,0.00,meteohub,2013-10-04 15:17:00,
2013-10-04 08:22:00,39.9,39.7,29.88,SW,225,2.0,3.0,99,0.00,,,0.00,meteohub,2013-10-04 15:22:00,
2013-10-04 08:27:00,40.1,39.9,29.88,SW,225,0.0,3.0,99,0.00,,,0.00,meteohub,2013-10-04 15:27:00,
2013-10-04 08:32:00,40.6,40.5,29.88,SW,225,0.0,3.0,99,0.00,,,0.00,meteohub,2013-10-04 15:32:00,
2013-10-04 08:37:00,41.2,41.0,29.88,South,180,0.0,2.0,99,0.00,,,0.00,meteohub,2013-10-04 15:37:00,
2013-10-04 08:42:00,41.5,41.4,29.88,South,180,0.0,0.0,99,0.00,,,0.00,meteohub,2013-10-04 15:42:00,
2013-10-04 08:47:00,41.7,41.5,29.88,SW,225,2.0,2.0,99,0.00,,,0.00,meteohub,2013-10-04 15:47:00,
2013-10-04 08:52:00,41.5,41.4,29.88,SW,225,3.0,3.0,99,0.00,,,0.00,meteohub,2013-10-04 15:52:00,
2013-10-04 08:57:00,41.5,41.4,29.88,South,180,1.0,3.0,99,0.00,,,0.00,meteohub,2013-10-04 15:57:00,
2013-10-04 09:02:00,41.7,41.5,29.88,South,180,2.0,3.0,99,0.00,,,0.00,meteohub,2013-10-04 16:02:00,
2013-10-04 09:07:00,41.9,41.7,29.88,South,180,0.0,3.0,99,0.00,,,0.00,meteohub,2013-10-04 16:07:00,
2013-10-04 09:12:00,42.3,42.1,29.88,SW,225,0.0,2.0,99,0.00,,,0.00,meteohub,2013-10-04 16:12:00,
2013-10-04 09:17:00,42.8,42.6,29.88,NE,45,2.0,2.0,99,0.00,,,0.00,meteohub,2013-10-04 16:17:00,
2013-10-04 09:22:00,43.3,43.2,29.89,NE,45,2.0,2.0,99,0.00,,,0.00,meteohub,2013-10-04 16:22:00,
2013-10-04 09:27:00,43.3,43.2,29.89,NE,45,0.0,2.0,99,0.00,,,0.00,meteohub,2013-10-04 16:27:00,
2013-10-04 09:32:00,43.7,43.5,29.88,East,90,2.0,2.0,99,0.00,,,0.00,meteohub,2013-10-04 16:32:00,
2013-10-04 09:37:00,43.3,43.2,29.88,NE,45,2.0,2.0,99,0.00,,,0.00,meteohub,2013-10-04 16:37:00,
2013-10-04 09:42:00,43.5,43.3,29.89,NE,45,3.0,3.0,99,0.00,,,0.00,meteohub,2013-10-04 16:42:00,
2013-10-04 09:47:00,43.5,43.3,29.89,North,0,2.0,3.0,99,0.00,,,0.00,meteohub,2013-10-04 16:47:00,
2013-10-04 09:52:00,43.7,43.5,29.90,NE,45,2.0,3.0,99,0.00,,,0.00,meteohub,2013-10-04 16:52:00,
2013-10-04 09:58:00,44.1,43.9,29.90,NE,45,2.0,3.0,99,0.00,,,0.00,meteohub,2013-10-04 16:58:00,
2013-10-04 10:03:00,44.6,44.4,29.89,NE,45,1.0,2.0,99,0.00,,,0.00,meteohub,2013-10-04 17:03:00,
2013-10-04 10:08:00,44.8,44.6,29.89,East,90,2.0,2.0,99,0.00,,,0.00,meteohub,2013-10-04 17:08:00,
2013-10-04 10:13:00,44.6,44.4,29.89,East,90,2.0,2.0,99,0.00,,,0.00,meteohub,2013-10-04 17:13:00,
2013-10-04 10:18:00,45.0,44.8,29.89,East,90,1.0,3.0,99,0.00,,,0.00,meteohub,2013-10-04 17:18:00,
2013-10-04 10:23:00,45.3,45.1,29.89,NE,45,2.0,3.0,99,0.00,,,0.00,meteohub,2013-10-04 17:23:00,
2013-10-04 10:28:00,45.5,45.3,29.88,East,90,3.0,3.0,99,0.00,,,0.00,meteohub,2013-10-04 17:28:00,
2013-10-04 10:33:00,46.2,46.0,29.89,North,0,0.0,3.0,99,0.00,,,0.00,meteohub,2013-10-04 17:33:00,
2013-10-04 10:59:00,47.7,46.9,29.89,East,90,2.0,3.0,97,0.00,,,0.00,meteohub,2013-10-04 17:59:00,
2013-10-04 11:04:00,48.0,46.9,29.89,North,0,2.0,3.0,96,0.00,,,0.00,meteohub,2013-10-04 18:04:00,
2013-10-04 11:09:00,48.9,47.5,29.89,NE,45,2.0,3.0,95,0.00,,,0.00,meteohub,2013-10-04 18:09:00,
2013-10-04 11:14:00,49.6,48.2,29.89,NE,45,1.0,3.0,95,0.00,,,0.00,meteohub,2013-10-04 18:14:00,
2013-10-04 11:19:00,50.5,48.6,29.88,NE,45,2.0,3.0,93,0.00,,,0.00,meteohub,2013-10-04 18:19:00,
2013-10-04 11:24:00,51.4,48.9,29.89,East,90,2.0,3.0,91,0.00,,,0.00,meteohub,2013-10-04 18:24:00,
2013-10-04 11:29:00,51.6,47.8,29.89,East,90,4.0,4.0,87,0.00,,,0.00,meteohub,2013-10-04 18:29:00,
2013-10-04 11:34:00,51.8,48.0,29.88,NE,45,2.0,4.0,87,0.00,,,0.00,meteohub,2013-10-04 18:34:00,
2013-10-04 11:39:00,51.8,47.7,29.88,East,90,3.0,4.0,86,0.00,,,0.00,meteohub,2013-10-04 18:39:00,
2013-10-04 11:44:00,52.0,47.3,29.88,East,90,4.0,6.0,84,0.00,,,0.00,meteohub,2013-10-04 18:44:00,
2013-10-04 11:49:00,52.3,48.0,29.89,North,0,4.0,6.0,85,0.00,,,0.00,meteohub,2013-10-04 18:49:00,
2013-10-04 11:54:00,52.9,48.2,29.88,East,90,3.0,6.0,84,0.00,,,0.00,meteohub,2013-10-04 18:54:00,
2013-10-04 11:59:00,53.2,47.8,29.88,SE,135,2.0,4.0,82,0.00,,,0.00,meteohub,2013-10-04 18:59:00,
2013-10-04 12:05:00,54.3,48.6,29.88,East,90,4.0,4.0,81,0.00,,,0.00,meteohub,2013-10-04 19:05:00,
2013-10-04 12:10:00,55.8,48.7,29.88,NE,45,6.0,6.0,77,0.00,,,0.00,meteohub,2013-10-04 19:10:00,
2013-10-04 12:15:00,56.7,49.5,29.88,NE,45,3.0,6.0,77,0.00,,,0.00,meteohub,2013-10-04 19:15:00,
2013-10-04 12:20:00,57.4,49.1,29.88,East,90,4.0,6.0,74,0.00,,,0.00,meteohub,2013-10-04 19:20:00,
2013-10-04 12:25:00,56.8,47.8,29.87,NE,45,4.0,6.0,72,0.00,,,0.00,meteohub,2013-10-04 19:25:00,
2013-10-04 12:30:00,56.8,48.6,29.87,NE,45,4.0,5.0,74,0.00,,,0.00,meteohub,2013-10-04 19:30:00,
2013-10-04 12:35:00,58.6,50.0,29.87,NE,45,5.0,5.0,73,0.00,,,0.00,meteohub,2013-10-04 19:35:00,
2013-10-04 12:40:00,59.4,49.6,29.87,NE,45,5.0,5.0,70,0.00,,,0.00,meteohub,2013-10-04 19:40:00,
2013-10-04 12:45:00,59.9,50.5,29.87,NE,45,4.0,5.0,71,0.00,,,0.00,meteohub,2013-10-04 19:45:00,
2013-10-04 12:50:00,60.1,48.7,29.86,NE,45,6.0,6.0,66,0.00,,,0.00,meteohub,2013-10-04 19:50:00,
2013-10-04 12:55:00,58.6,48.9,29.86,NE,45,7.0,7.0,70,0.00,,,0.00,meteohub,2013-10-04 19:55:00,
2013-10-04 13:00:00,58.1,49.5,29.86,SE,135,4.0,7.0,73,0.00,,,0.00,meteohub,2013-10-04 20:00:00,
2013-10-04 13:05:00,59.9,50.9,29.86,NE,45,4.0,7.0,72,0.00,,,0.00,meteohub,2013-10-04 20:05:00,
2013-10-04 13:10:00,60.6,50.0,29.86,East,90,4.0,7.0,68,0.00,,,0.00,meteohub,2013-10-04 20:10:00,
2013-10-04 13:15:00,60.4,49.8,29.86,North,0,4.0,7.0,68,0.00,,,0.00,meteohub,2013-10-04 20:15:00,
2013-10-04 13:20:00,60.4,50.2,29.85,NE,45,4.0,8.0,69,0.00,,,0.00,meteohub,2013-10-04 20:20:00,
2013-10-04 13:25:00,61.0,50.0,29.85,North,0,4.0,8.0,67,0.00,,,0.00,meteohub,2013-10-04 20:25:00,
2013-10-04 13:30:00,61.9,50.4,29.85,East,90,2.0,8.0,66,0.00,,,0.00,meteohub,2013-10-04 20:30:00,
2013-10-04 13:35:00,62.4,50.5,29.85,North,0,3.0,4.0,65,0.00,,,0.00,meteohub,2013-10-04 20:35:00,
2013-10-04 13:40:00,63.0,50.5,29.85,North,0,3.0,4.0,64,0.00,,,0.00,meteohub,2013-10-04 20:40:00,
2013-10-04 13:46:00,63.1,50.4,29.84,North,0,4.0,4.0,63,0.00,,,0.00,meteohub,2013-10-04 20:46:00,
2013-10-04 13:51:00,62.8,50.0,29.84,NE,45,4.0,5.0,63,0.00,,,0.00,meteohub,2013-10-04 20:51:00,
2013-10-04 13:56:00,63.1,51.3,29.84,SW,225,2.0,5.0,65,0.00,,,0.00,meteohub,2013-10-04 20:56:00,
2013-10-04 14:01:00,63.7,50.4,29.84,SE,135,4.0,4.0,62,0.00,,,0.00,meteohub,2013-10-04 21:01:00,
2013-10-04 14:06:00,63.5,49.8,29.84,North,0,4.0,4.0,61,0.00,,,0.00,meteohub,2013-10-04 21:06:00,
2013-10-04 14:11:00,63.9,50.2,29.83,East,90,4.0,5.0,61,0.00,,,0.00,meteohub,2013-10-04 21:11:00,
2013-10-04 14:16:00,64.0,50.4,29.83,North,0,4.0,5.0,61,0.00,,,0.00,meteohub,2013-10-04 21:16:00,
2013-10-04 14:21:00,64.4,50.2,29.83,NE,45,4.0,5.0,60,0.00,,,0.00,meteohub,2013-10-04 21:21:00,
2013-10-04 14:26:00,65.3,52.0,29.83,East,90,1.0,5.0,62,0.00,,,0.00,meteohub,2013-10-04 21:26:00,
2013-10-04 14:31:00,66.4,51.6,29.83,North,0,2.0,4.0,59,0.00,,,0.00,meteohub,2013-10-04 21:31:00,
2013-10-04 14:36:00,68.0,51.8,29.83,North,0,2.0,4.0,56,0.00,,,0.00,meteohub,2013-10-04 21:36:00,
2013-10-04 14:41:00,68.0,51.3,29.82,NNW,338,3.0,4.0,55,0.00,,,0.00,meteohub,2013-10-04 21:41:00,
2013-10-04 14:46:00,68.2,51.4,29.83,NE,45,3.0,4.0,55,0.00,,,0.00,meteohub,2013-10-04 21:46:00,
2013-10-04 14:51:00,67.6,51.8,29.82,North,0,2.0,4.0,57,0.00,,,0.00,meteohub,2013-10-04 21:51:00,
2013-10-04 14:56:00,67.5,51.3,29.82,North,0,2.0,4.0,56,0.00,,,0.00,meteohub,2013-10-04 21:56:00,
2013-10-04 15:01:00,67.1,50.9,29.82,North,0,2.0,4.0,56,0.00,,,0.00,meteohub,2013-10-04 22:01:00,
2013-10-04 15:06:00,67.3,51.1,29.81,NE,45,2.0,4.0,56,0.00,,,0.00,meteohub,2013-10-04 22:06:00,
2013-10-04 15:11:00,67.6,50.9,29.82,NE,45,2.0,5.0,55,0.00,,,0.00,meteohub,2013-10-04 22:11:00,
2013-10-04 15:16:00,68.4,50.5,29.82,NE,45,4.0,5.0,53,0.00,,,0.00,meteohub,2013-10-04 22:16:00,
2013-10-04 15:21:00,68.0,51.3,29.81,North,0,3.0,5.0,55,0.00,,,0.00,meteohub,2013-10-04 22:21:00,
2013-10-04 15:26:00,68.7,50.4,29.81,NE,45,3.0,6.0,52,0.00,,,0.00,meteohub,2013-10-04 22:26:00,
2013-10-04 15:31:00,68.2,50.4,29.81,NE,45,3.0,6.0,53,0.00,,,0.00,meteohub,2013-10-04 22:31:00,
2013-10-04 15:36:00,67.3,49.6,29.81,East,90,3.0,5.0,53,0.00,,,0.00,meteohub,2013-10-04 22:36:00,
2013-10-04 15:42:00,66.7,50.0,29.81,NE,45,3.0,5.0,55,0.00,,,0.00,meteohub,2013-10-04 22:42:00,
2013-10-04 15:47:00,66.4,49.6,29.81,NE,45,6.0,6.0,55,0.00,,,0.00,meteohub,2013-10-04 22:47:00,
2013-10-04 15:52:00,65.1,49.1,29.81,NE,45,4.0,6.0,56,0.00,,,0.00,meteohub,2013-10-04 22:52:00,
2013-10-04 15:57:00,64.6,48.9,29.81,NE,45,5.0,6.0,57,0.00,,,0.00,meteohub,2013-10-04 22:57:00,
2013-10-04 16:02:00,63.3,49.3,29.81,NE,45,3.0,6.0,60,0.00,,,0.00,meteohub,2013-10-04 23:02:00,
2013-10-04 16:07:00,63.0,49.3,29.81,East,90,3.0,5.0,61,0.00,,,0.00,meteohub,2013-10-04 23:07:00,
2013-10-04 16:12:00,63.1,49.5,29.80,NE,45,2.0,5.0,61,0.00,,,0.00,meteohub,2013-10-04 23:12:00,
2013-10-04 16:17:00,62.8,49.1,29.80,NE,45,3.0,5.0,61,0.00,,,0.00,meteohub,2013-10-04 23:17:00,
2013-10-04 16:22:00,63.3,49.3,29.80,North,0,2.0,5.0,60,0.00,,,0.00,meteohub,2013-10-04 23:22:00,
2013-10-04 16:27:00,64.8,49.6,29.80,NE,45,3.0,5.0,58,0.00,,,0.00,meteohub,2013-10-04 23:27:00,
2013-10-04 16:32:00,64.6,49.5,29.80,NE,45,3.0,5.0,58,0.00,,,0.00,meteohub,2013-10-04 23:32:00,
2013-10-04 16:37:00,66.0,49.8,29.80,NE,45,3.0,5.0,56,0.00,,,0.00,meteohub,2013-10-04 23:37:00,
2013-10-04 16:42:00,66.9,49.3,29.80,NE,45,3.0,4.0,53,0.00,,,0.00,meteohub,2013-10-04 23:42:00,
2013-10-04 16:47:00,66.4,48.7,29.80,NE,45,4.0,4.0,53,0.00,,,0.00,meteohub,2013-10-04 23:47:00,
2013-10-04 16:52:00,65.5,49.3,29.80,NE,45,2.0,4.0,56,0.00,,,0.00,meteohub,2013-10-04 23:52:00,
2013-10-04 16:57:00,66.0,49.5,29.80,NE,45,3.0,4.0,55,0.00,,,0.00,meteohub,2013-10-04 23:57:00,
2013-10-04 17:02:00,67.5,50.2,29.80,East,90,2.0,4.0,54,0.00,,,0.00,meteohub,2013-10-05 00:02:00,
2013-10-04 17:07:00,68.5,49.6,29.79,NE,45,3.0,3.0,51,0.00,,,0.00,meteohub,2013-10-05 00:07:00,
2013-10-04 17:12:00,68.5,49.1,29.79,NE,45,4.0,4.0,50,0.00,,,0.00,meteohub,2013-10-05 00:12:00,
2013-10-04 17:17:00,68.4,49.5,29.79,East,90,2.0,4.0,51,0.00,,,0.00,meteohub,2013-10-05 00:17:00,
2013-10-04 17:22:00,68.7,49.8,29.79,North,0,2.0,4.0,51,0.00,,,0.00,meteohub,2013-10-05 00:22:00,
2013-10-04 17:27:00,68.5,49.6,29.79,NE,45,2.0,4.0,51,0.00,,,0.00,meteohub,2013-10-05 00:27:00,
2013-10-04 17:32:00,69.1,50.7,29.79,North,0,2.0,3.0,52,0.00,,,0.00,meteohub,2013-10-05 00:32:00,
2013-10-04 17:37:00,70.5,50.9,29.79,NE,45,2.0,3.0,50,0.00,,,0.00,meteohub,2013-10-05 00:37:00,
2013-10-04 17:42:00,71.1,50.9,29.79,NE,45,1.0,2.0,49,0.00,,,0.00,meteohub,2013-10-05 00:42:00,
2013-10-04 17:47:00,72.1,52.0,29.79,NE,45,1.0,2.0,49,0.00,,,0.00,meteohub,2013-10-05 00:47:00,
2013-10-04 17:52:00,72.5,51.1,29.79,North,0,1.0,2.0,47,0.00,,,0.00,meteohub,2013-10-05 00:52:00,
2013-10-04 17:57:00,72.7,48.9,29.79,North,0,2.0,2.0,43,0.00,,,0.00,meteohub,2013-10-05 00:57:00,
2013-10-04 18:02:00,71.6,48.6,29.79,North,0,2.0,2.0,44,0.00,,,0.00,meteohub,2013-10-05 01:02:00,
2013-10-04 18:07:00,70.7,47.7,29.79,North,0,2.0,3.0,44,0.00,,,0.00,meteohub,2013-10-05 01:07:00,
2013-10-04 18:12:00,68.7,48.2,29.78,North,0,2.0,3.0,48,0.00,,,0.00,meteohub,2013-10-05 01:12:00,
2013-10-04 18:17:00,66.0,47.8,29.78,North,0,2.0,3.0,52,0.00,,,0.00,meteohub,2013-10-05 01:17:00,
2013-10-04 18:22:00,63.9,47.8,29.78,North,0,1.0,3.0,56,0.00,,,0.00,meteohub,2013-10-05 01:22:00,
2013-10-04 18:27:00,62.6,47.1,29.78,North,0,2.0,3.0,57,0.00,,,0.00,meteohub,2013-10-05 01:27:00,
2013-10-04 18:32:00,61.7,47.3,29.78,North,0,0.0,2.0,59,0.00,,,0.00,meteohub,2013-10-05 01:32:00,
2013-10-04 18:37:00,59.9,47.3,29.78,NE,45,1.0,2.0,63,0.00,,,0.00,meteohub,2013-10-05 01:37:00,
2013-10-04 18:42:00,58.6,46.9,29.78,NE,45,0.0,4.0,65,0.00,,,0.00,meteohub,2013-10-05 01:42:00,
2013-10-04 18:47:00,57.2,47.1,29.78,NE,45,0.0,4.0,69,0.00,,,0.00,meteohub,2013-10-05 01:47:00,
2013-10-04 18:52:00,55.8,46.9,29.78,NE,45,0.0,4.0,72,0.00,,,0.00,meteohub,2013-10-05 01:52:00,
2013-10-04 18:57:00,54.5,47.1,29.78,SE,135,0.0,1.0,76,0.00,,,0.00,meteohub,2013-10-05 01:57:00,
2013-10-04 19:02:00,53.8,47.1,29.78,SE,135,0.0,2.0,78,0.00,,,0.00,meteohub,2013-10-05 02:02:00,
2013-10-04 19:07:00,53.1,47.1,29.78,SE,135,0.0,2.0,80,0.00,,,0.00,meteohub,2013-10-05 02:07:00,
2013-10-04 19:12:00,52.3,46.9,29.78,SE,135,0.0,2.0,82,0.00,,,0.00,meteohub,2013-10-05 02:12:00,
2013-10-04 19:17:00,52.0,46.9,29.78,SE,135,0.0,1.0,83,0.00,,,0.00,meteohub,2013-10-05 02:17:00,
2013-10-04 19:22:00,51.6,47.3,29.78,SE,135,2.0,2.0,85,0.00,,,0.00,meteohub,2013-10-05 02:22:00,
2013-10-04 19:27:00,51.6,47.3,29.78,SW,225,0.0,2.0,85,0.00,,,0.00,meteohub,2013-10-05 02:27:00,
2013-10-04 19:32:00,51.3,46.9,29.78,SW,225,0.0,2.0,85,0.00,,,0.00,meteohub,2013-10-05 02:32:00,
2013-10-04 19:37:00,50.9,46.6,29.78,SW,225,0.0,2.0,85,0.00,,,0.00,meteohub,2013-10-05 02:37:00,
2013-10-04 19:42:00,50.5,45.9,29.78,SW,225,1.0,2.0,84,0.00,,,0.00,meteohub,2013-10-05 02:42:00,
2013-10-04 19:47:00,50.4,45.3,29.78,SW,225,0.0,2.0,83,0.00,,,0.00,meteohub,2013-10-05 02:47:00,
2013-10-04 19:52:00,50.4,45.3,29.78,SW,225,0.0,1.0,83,0.00,,,0.00,meteohub,2013-10-05 02:52:00,
2013-10-04 19:57:00,50.0,44.8,29.78,SW,225,0.0,1.0,82,0.00,,,0.00,meteohub,2013-10-05 02:57:00,
2013-10-04 20:02:00,49.8,44.6,29.78,SW,225,0.0,0.0,82,0.00,,,0.00,meteohub,2013-10-05 03:02:00,
2013-10-04 20:07:00,49.8,44.2,29.78,SW,225,2.0,0.0,81,0.00,,,0.00,meteohub,2013-10-05 03:07:00,
2013-10-04 20:12:00,50.0,44.4,29.78,SW,225,0.0,2.0,81,0.00,,,0.00,meteohub,2013-10-05 03:12:00,
2013-10-04 20:17:00,50.0,44.4,29.78,SW,225,0.0,2.0,81,0.00,,,0.00,meteohub,2013-10-05 03:17:00,
2013-10-04 20:22:00,49.5,43.9,29.78,SW,225,0.0,2.0,81,0.00,,,0.00,meteohub,2013-10-05 03:22:00,
2013-10-04 20:27:00,49.1,43.5,29.78,SW,225,0.0,0.0,81,0.00,,,0.00,meteohub,2013-10-05 03:27:00,
2013-10-04 20:32:00,49.1,43.2,29.78,SW,225,0.0,1.0,80,0.00,,,0.00,meteohub,2013-10-05 03:32:00,
2013-10-04 20:37:00,49.1,42.8,29.78,SW,225,1.0,1.0,79,0.00,,,0.00,meteohub,2013-10-05 03:37:00,
2013-10-04 20:42:00,49.3,42.8,29.78,SW,225,0.0,2.0,78,0.00,,,0.00,meteohub,2013-10-05 03:42:00,
2013-10-04 20:47:00,49.1,42.6,29.78,SW,225,0.0,2.0,78,0.00,,,0.00,meteohub,2013-10-05 03:47:00,
2013-10-04 20:52:00,49.3,42.8,29.78,SW,225,0.0,2.0,78,0.00,,,0.00,meteohub,2013-10-05 03:52:00,
2013-10-04 20:57:00,49.8,43.0,29.78,SW,225,0.0,0.0,77,0.00,,,0.00,meteohub,2013-10-05 03:57:00,
2013-10-04 21:01:00,50.0,42.8,29.78,SW,225,0.0,0.0,76,0.00,,,0.00,meteohub,2013-10-05 04:01:00,
2013-10-04 21:02:00,50.2,43.0,29.78,SW,225,0.0,0.0,76,0.00,,,0.00,meteohub,2013-10-05 04:02:00,
2013-10-04 21:03:00,50.2,43.0,29.78,SW,225,0.0,0.0,76,0.00,,,0.00,meteohub,2013-10-05 04:03:00,
2013-10-04 21:05:00,50.4,43.2,29.78,SW,225,0.0,0.0,76,0.00,,,0.00,meteohub,2013-10-05 04:05:00,
2013-10-04 21:07:00,50.5,43.3,29.78,SW,225,0.0,0.0,76,0.00,,,0.00,meteohub,2013-10-05 04:07:00,
2013-10-04 21:12:00,50.9,43.0,29.78,SW,225,0.0,0.0,74,0.00,,,0.00,meteohub,2013-10-05 04:12:00,
2013-10-04 21:17:00,51.1,42.8,29.78,SW,225,0.0,0.0,73,0.00,,,0.00,meteohub,2013-10-05 04:17:00,
2013-10-04 21:23:00,50.9,42.6,29.78,SW,225,0.0,0.0,73,0.00,,,0.00,meteohub,2013-10-05 04:23:00,
2013-10-04 21:28:00,50.7,42.4,29.78,SW,225,0.0,0.0,73,0.00,,,0.00,meteohub,2013-10-05 04:28:00,
2013-10-04 21:33:00,50.5,42.3,29.78,SW,225,0.0,0.0,73,0.00,,,0.00,meteohub,2013-10-05 04:33:00,
2013-10-04 21:39:00,50.4,42.1,29.78,SW,225,0.0,0.0,73,0.00,,,0.00,meteohub,2013-10-05 04:39:00,
2013-10-04 21:44:00,49.8,42.3,29.78,SW,225,0.0,0.0,75,0.00,,,0.00,meteohub,2013-10-05 04:44:00,
2013-10-04 21:49:00,48.9,42.1,29.78,SW,225,0.0,0.0,77,0.00,,,0.00,meteohub,2013-10-05 04:49:00,
2013-10-04 21:54:00,48.6,42.3,29.78,SW,225,0.0,0.0,79,0.00,,,0.00,meteohub,2013-10-05 04:54:00,
2013-10-04 21:59:00,47.8,41.9,29.78,SW,225,0.0,0.0,80,0.00,,,0.00,meteohub,2013-10-05 04:59:00,
2013-10-04 22:04:00,47.1,41.5,29.78,SW,225,0.0,0.0,81,0.00,,,0.00,meteohub,2013-10-05 05:04:00,
2013-10-04 22:09:00,46.8,41.9,29.79,SW,225,0.0,0.0,83,0.00,,,0.00,meteohub,2013-10-05 05:09:00,
2013-10-04 22:14:00,46.4,41.9,29.78,SW,225,0.0,0.0,84,0.00,,,0.00,meteohub,2013-10-05 05:14:00,
2013-10-04 22:19:00,46.2,41.9,29.78,SW,225,0.0,0.0,85,0.00,,,0.00,meteohub,2013-10-05 05:19:00,
2013-10-04 22:24:00,46.4,42.4,29.78,SW,225,0.0,0.0,86,0.00,,,0.00,meteohub,2013-10-05 05:24:00,
2013-10-04 22:29:00,46.8,42.4,29.78,SW,225,0.0,0.0,85,0.00,,,0.00,meteohub,2013-10-05 05:29:00,
2013-10-04 22:34:00,46.8,42.4,29.78,SW,225,0.0,0.0,85,0.00,,,0.00,meteohub,2013-10-05 05:34:00,
2013-10-04 22:39:00,46.8,42.8,29.78,SW,225,0.0,0.0,86,0.00,,,0.00,meteohub,2013-10-05 05:39:00,
2013-10-04 22:45:00,46.9,42.6,29.78,SW,225,0.0,0.0,85,0.00,,,0.00,meteohub,2013-10-05 05:45:00,
2013-10-04 22:50:00,47.1,42.8,29.78,SW,225,0.0,0.0,85,0.00,,,0.00,meteohub,2013-10-05 05:50:00,
2013-10-04 22:55:00,47.1,42.6,29.78,SW,225,0.0,0.0,84,0.00,,,0.00,meteohub,2013-10-05 05:55:00,
2013-10-04 23:00:00,47.1,42.6,29.78,SW,225,0.0,0.0,84,0.00,,,0.00,meteohub,2013-10-05 06:00:00,
2013-10-04 23:05:00,46.8,42.4,29.78,SW,225,0.0,0.0,85,0.00,,,0.00,meteohub,2013-10-05 06:05:00,
2013-10-04 23:10:00,46.2,41.9,29.78,SW,225,0.0,0.0,85,0.00,,,0.00,meteohub,2013-10-05 06:10:00,
2013-10-04 23:15:00,46.0,42.4,29.78,SW,225,0.0,0.0,87,0.00,,,0.00,meteohub,2013-10-05 06:15:00,
2013-10-04 23:20:00,46.2,42.8,29.78,SW,225,0.0,0.0,88,0.00,,,0.00,meteohub,2013-10-05 06:20:00,
2013-10-04 23:25:00,46.0,42.6,29.78,SW,225,0.0,0.0,88,0.00,,,0.00,meteohub,2013-10-05 06:25:00,
2013-10-04 23:30:00,46.0,43.0,29.78,SW,225,0.0,0.0,89,0.00,,,0.00,meteohub,2013-10-05 06:30:00,
2013-10-04 23:35:00,46.0,43.0,29.78,SW,225,0.0,0.0,89,0.00,,,0.00,meteohub,2013-10-05 06:35:00,
2013-10-04 23:40:00,45.9,43.2,29.78,SW,225,0.0,0.0,90,0.00,,,0.00,meteohub,2013-10-05 06:40:00,
2013-10-04 23:45:00,46.0,43.3,29.77,SW,225,0.0,0.0,90,0.00,,,0.00,meteohub,2013-10-05 06:45:00,
2013-10-04 23:50:00,46.2,43.7,29.78,SW,225,0.0,0.0,91,0.00,,,0.00,meteohub,2013-10-05 06:50:00,
2013-10-04 23:55:00,46.8,44.2,29.78,SW,225,0.0,0.0,91,0.00,,,0.00,meteohub,2013-10-05 06:55:00,